CheckWX is a tool to help pilots better visualize weather data.  It is not intended as a substitute for an official pre-flight weather briefing.

12:54:08 UTC

KCGS METAR
College Park Airport
College Park, Maryland, USA
Current

31 mins ago

KCGS 171223Z AUTO 00000KT 10SM SCT090 25/19 A2998 RMK AO1 T02480188
Observed
Jun-17 @ 12:23 UTC
Visibility
10 SM
Flight Rules
VFR
Cloud Levels
  • Scattered at 9,000' AGL
Temperature
25°C / 77°F
Dewpoint
19°C / 66°F
Humidity
69%
Altimeter
29.98" Hg
Pressure
1015.22 hPa
Previous

51 mins ago

KCGS 171203Z AUTO 32004KT 10SM SCT100 24/19 A2998 RMK AO1 T02400186
Observed
Jun-17 @ 12:03 UTC
Wind
  • 320° at 4 KTS
Visibility
10 SM
Flight Rules
VFR
Cloud Levels
  • Scattered at 10,000' AGL
Temperature
24°C / 75°F
Dewpoint
19°C / 66°F
Humidity
74%
Altimeter
29.98" Hg
Pressure
1015.22 hPa
Previous

1 hour ago

KCGS 171143Z AUTO 00000KT 10SM SCT100 24/19 A2998 RMK AO1 T02400187
Observed
Jun-17 @ 11:43 UTC
Visibility
10 SM
Flight Rules
VFR
Cloud Levels
  • Scattered at 10,000' AGL
Temperature
24°C / 75°F
Dewpoint
19°C / 66°F
Humidity
74%
Altimeter
29.98" Hg
Pressure
1015.22 hPa